Time;durP1;ratioP1;P1;durP2;ratioP2;P2;SDS_P1;SDS_P2;PMS_P1;PMS_P2;Temp;Humidity;BMP_temperature;BMP_pressure;BME280_temperature;BME280_humidity;BME280_pressure;Samples;Min_cycle;Max_cycle;Signal;HPM_P1;HPM_P2
2024/01/17 00:01:54;;;;;;;9.40;5.68;;;;;;;-1.15;99.58;98917.53;5089848;28;20070;-78
2024/01/17 00:04:20;;;;;;;12.07;8.63;;;;;;;-1.57;99.68;98861.25;5090066;28;20035;-78
2024/01/17 00:06:45;;;;;;;10.57;5.93;;;;;;;-1.46;98.98;98910.25;5089780;28;20115;-78
2024/01/17 00:09:11;;;;;;;11.82;5.80;;;;;;;-1.31;98.17;98926.47;5090065;28;20044;-78
2024/01/17 00:11:37;;;;;;;8.98;5.30;;;;;;;-1.34;97.50;98929.13;5089495;28;20056;-78
2024/01/17 00:14:02;;;;;;;10.07;4.65;;;;;;;-1.73;97.03;98890.25;5091017;28;20051;-79
2024/01/17 00:16:28;;;;;;;12.68;5.78;;;;;;;-1.90;97.98;98864.31;5091150;28;20903;-78
2024/01/17 00:18:57;;;;;;;14.88;6.93;;;;;;;-1.47;98.28;98922.22;5091026;28;20153;-78
2024/01/17 00:21:22;;;;;;;18.95;8.75;;;;;;;-1.85;98.97;98861.34;5089592;28;20420;-78
2024/01/17 00:23:47;;;;;;;20.23;10.50;;;;;;;-1.35;100.00;98931.03;5091056;28;20031;-78
2024/01/17 00:26:13;;;;;;;19.85;10.25;;;;;;;-2.09;100.00;98805.47;5089266;28;20039;-79
2024/01/17 00:28:38;;;;;;;18.98;10.45;;;;;;;-1.47;100.00;98912.16;5089908;28;20119;-79
2024/01/17 00:31:04;;;;;;;25.35;12.45;;;;;;;-1.67;100.00;98878.81;5089845;28;20023;-78
2024/01/17 00:33:30;;;;;;;24.40;12.07;;;;;;;-1.34;100.00;98920.97;5090172;28;20055;-79
2024/01/17 00:35:55;;;;;;;24.27;12.13;;;;;;;-1.27;100.00;98919.19;5089605;28;20400;-79
2024/01/17 00:38:21;;;;;;;21.00;11.60;;;;;;;-1.29;100.00;98924.22;5089671;28;20028;-77
2024/01/17 00:40:46;;;;;;;25.73;13.02;;;;;;;-1.29;100.00;98928.84;5075908;28;20484;-79
2024/01/17 00:43:11;;;;;;;27.80;12.35;;;;;;;-1.49;100.00;98919.06;5089838;28;20487;-78
2024/01/17 00:45:37;;;;;;;19.98;11.02;;;;;;;-1.75;100.00;98879.75;5089655;28;20020;-79
2024/01/17 00:48:03;;;;;;;36.13;16.67;;;;;;;-1.54;100.00;98909.28;5089518;28;20074;-79
2024/01/17 00:50:28;;;;;;;22.85;11.65;;;;;;;-1.63;100.00;98918.75;5089455;28;20023;-79
2024/01/17 00:52:54;;;;;;;21.65;11.27;;;;;;;-1.74;100.00;98903.00;5089295;28;20047;-79
2024/01/17 00:55:20;;;;;;;37.03;11.88;;;;;;;-1.67;100.00;98949.22;5088723;28;20051;-79
2024/01/17 00:57:45;;;;;;;18.98;10.63;;;;;;;-1.83;100.00;98970.09;5090949;28;20123;-78
2024/01/17 01:00:11;;;;;;;22.02;9.00;;;;;;;-2.15;100.00;98933.28;5093456;28;20115;-79
2024/01/17 01:02:37;;;;;;;16.20;8.05;;;;;;;-2.19;100.00;98930.47;5093378;28;20031;-80
2024/01/17 01:05:02;;;;;;;17.33;8.27;;;;;;;-2.30;100.00;98915.88;5093044;28;20031;-79
2024/01/17 01:07:28;;;;;;;15.30;7.78;;;;;;;-2.46;100.00;98921.25;5094351;28;20031;-79
2024/01/17 01:09:53;;;;;;;14.75;8.18;;;;;;;-2.26;100.00;98953.84;5079116;28;20020;-78
2024/01/17 01:12:18;;;;;;;15.00;7.30;;;;;;;-2.35;100.00;98937.75;5092902;28;20024;-79
2024/01/17 01:14:44;;;;;;;15.65;8.75;;;;;;;-2.29;100.00;98919.38;5092240;28;20035;-78
2024/01/17 01:17:09;;;;;;;13.23;7.53;;;;;;;-2.56;100.00;98861.44;5092688;28;20016;-78
2024/01/17 01:19:35;;;;;;;23.92;10.27;;;;;;;-2.05;100.00;98943.63;5094008;28;20020;-79
2024/01/17 01:22:01;;;;;;;37.65;15.65;;;;;;;-2.17;100.00;98920.06;5092978;28;20024;-78
2024/01/17 01:24:26;;;;;;;21.65;9.52;;;;;;;-2.32;100.00;98920.06;5092349;28;20036;-80
2024/01/17 01:26:52;;;;;;;16.40;8.10;;;;;;;-2.34;100.00;98904.16;5092955;28;20024;-79
2024/01/17 01:29:17;;;;;;;15.35;6.95;;;;;;;-2.00;100.00;98951.47;5093009;28;20034;-79
2024/01/17 01:31:43;;;;;;;12.02;6.53;;;;;;;-2.50;100.00;98860.84;5092596;28;20377;-80
2024/01/17 01:34:08;;;;;;;11.55;6.40;;;;;;;-2.37;100.00;98866.19;5093776;28;20028;-79
2024/01/17 01:36:34;;;;;;;9.07;5.15;;;;;;;-2.28;100.00;98872.22;5092753;28;20036;-78
2024/01/17 01:38:59;;;;;;;8.90;5.15;;;;;;;-1.97;100.00;98923.69;5093526;28;20060;-80
2024/01/17 01:41:25;;;;;;;11.88;5.20;;;;;;;-1.81;100.00;98940.72;5092524;28;20044;-79
2024/01/17 01:43:51;;;;;;;9.38;5.07;;;;;;;-2.14;100.00;98867.97;5092471;28;20476;-79
2024/01/17 01:46:20;;;;;;;9.68;5.55;;;;;;;-1.81;100.00;98915.59;5092647;28;20032;-80
2024/01/17 01:48:48;;;;;;;5.65;4.07;;;;;;;-1.71;100.00;98909.66;5092343;28;20032;-79
2024/01/17 01:51:14;;;;;;;11.63;4.25;;;;;;;-1.96;100.00;98879.25;5093753;28;20581;-78
2024/01/17 01:53:43;;;;;;;7.93;4.43;;;;;;;-2.13;100.00;98822.75;5091727;28;20562;-78
2024/01/17 01:56:13;;;;;;;7.90;4.40;;;;;;;-1.66;100.00;98907.47;5092361;28;20458;-79
2024/01/17 01:58:41;;;;;;;8.25;3.90;;;;;;;-1.88;100.00;98875.59;5091916;28;20028;-78
2024/01/17 02:01:07;;;;;;;;;;;;;;;-1.52;100.00;98908.94;5092360;28;20044;-79
2024/01/17 02:03:33;;;;;;;12.65;6.15;;;;;;;-1.87;100.00;98884.50;5092107;28;19961;-78
2024/01/17 02:06:00;;;;;;;6.60;4.05;;;;;;;-2.08;100.00;98884.75;5093004;28;20059;-79
2024/01/17 02:08:25;;;;;;;11.18;5.38;;;;;;;-1.87;100.00;98919.69;5092926;28;20039;-79
2024/01/17 02:10:51;;;;;;;7.38;4.90;;;;;;;-2.13;100.00;98880.38;5093140;28;20020;-79
2024/01/17 02:13:16;;;;;;;7.35;4.38;;;;;;;-2.00;100.00;98894.63;5088428;28;20460;-80
2024/01/17 02:15:42;;;;;;;8.40;4.20;;;;;;;-2.18;100.00;98877.94;5083507;28;20020;-80
2024/01/17 02:18:07;;;;;;;11.05;6.47;;;;;;;-2.05;100.00;98889.47;5091766;28;20085;-79
2024/01/17 02:20:33;;;;;;;20.33;9.85;;;;;;;-1.97;100.00;98902.03;5092071;28;20530;-80
2024/01/17 02:22:58;;;;;;;49.63;24.55;;;;;;;-1.95;100.00;98870.00;5092688;28;20102;-78
2024/01/17 02:25:23;;;;;;;271.63;97.75;;;;;;;-2.04;100.00;98847.72;5091650;28;20043;-79
2024/01/17 02:27:49;;;;;;;552.08;218.88;;;;;;;-1.92;100.00;98871.19;5092923;28;20020;-80
2024/01/17 02:30:15;;;;;;;437.70;159.35;;;;;;;-1.80;100.00;98914.44;5091727;28;20020;-78
2024/01/17 02:32:44;;;;;;;435.52;153.43;;;;;;;-2.03;100.00;98878.28;5091360;28;20476;-78
2024/01/17 02:35:10;;;;;;;351.88;118.30;;;;;;;-1.87;100.00;98898.03;5091320;28;20022;-79
2024/01/17 02:37:35;;;;;;;206.50;75.03;;;;;;;-1.82;100.00;98895.06;5091674;28;20024;-80
2024/01/17 02:40:01;;;;;;;213.75;103.78;;;;;;;-2.38;100.00;98797.78;5091496;28;20106;-79
2024/01/17 02:42:26;;;;;;;220.48;81.75;;;;;;;-1.81;100.00;98875.75;5092095;28;20032;-79
2024/01/17 02:44:52;;;;;;;41.78;23.33;;;;;;;-1.65;100.00;98895.50;5091557;28;20020;-79
2024/01/17 02:47:17;;;;;;;27.10;13.23;;;;;;;-1.60;100.00;98872.78;5091125;28;20122;-79
2024/01/17 02:49:42;;;;;;;78.82;28.85;;;;;;;-1.36;100.00;98890.72;5099204;28;20024;-80
2024/01/17 02:52:08;;;;;;;27.00;13.18;;;;;;;-1.77;100.00;98817.06;5090811;28;20507;-79
2024/01/17 02:54:33;;;;;;;25.50;11.98;;;;;;;-1.77;100.00;98811.63;5090748;28;20048;-79
2024/01/17 02:56:59;;;;;;;36.85;20.88;;;;;;;-1.32;100.00;98870.69;5090815;28;20030;-79
2024/01/17 02:59:25;;;;;;;18.58;11.32;;;;;;;-1.55;100.00;98823.72;5090969;28;20119;-80
2024/01/17 03:01:53;;;;;;;24.58;14.07;;;;;;;-1.40;100.00;98862.78;5092089;28;20052;-80
2024/01/17 03:04:18;;;;;;;79.85;32.40;;;;;;;-1.72;100.00;98814.06;5090871;28;20028;-80
2024/01/17 03:06:45;;;;;;;56.35;27.98;;;;;;;-1.65;100.00;98825.06;5091798;28;20039;-79
2024/01/17 03:09:11;;;;;;;40.03;17.40;;;;;;;-1.47;100.00;98857.19;5090952;28;20024;-79
2024/01/17 03:11:37;;;;;;;18.40;11.00;;;;;;;-1.57;100.00;98858.53;5090845;28;20028;-80
2024/01/17 03:14:03;;;;;;;28.60;16.33;;;;;;;-1.60;100.00;98853.81;5092059;28;20642;-78
2024/01/17 03:16:28;;;;;;;49.63;24.13;;;;;;;-1.82;100.00;98830.88;5090096;28;20416;-79
2024/01/17 03:18:54;;;;;;;42.88;22.75;;;;;;;-1.73;100.00;98834.16;5091051;28;20472;-80
2024/01/17 03:21:19;;;;;;;42.28;22.80;;;;;;;-1.97;100.00;98796.44;5090098;28;20476;-78
2024/01/17 03:23:45;;;;;;;64.10;30.48;;;;;;;-1.97;100.00;98828.16;5090838;28;20024;-79
2024/01/17 03:26:10;;;;;;;90.07;36.53;;;;;;;-1.95;100.00;98826.69;5090734;28;20025;-80
2024/01/17 03:28:36;;;;;;;116.63;43.92;;;;;;;-1.98;100.00;98826.56;5091920;28;20068;-79
2024/01/17 03:31:02;;;;;;;232.23;72.45;;;;;;;-1.77;100.00;98859.59;5090083;28;20543;-79
2024/01/17 03:33:27;;;;;;;116.78;40.15;;;;;;;-1.67;100.00;98878.00;5073591;28;20028;-79
2024/01/17 03:35:53;;;;;;;136.98;47.60;;;;;;;-2.06;100.00;98828.34;5090061;28;20113;-78
2024/01/17 03:38:18;;;;;;;99.10;38.55;;;;;;;-1.89;100.00;98852.34;5090450;28;20024;-79
2024/01/17 03:40:44;;;;;;;148.75;53.03;;;;;;;-2.61;100.00;98750.81;5091620;28;20475;-79
2024/01/17 03:43:11;;;;;;;114.40;41.30;;;;;;;-1.51;100.00;98915.94;5090379;28;20020;-78
2024/01/17 03:45:36;;;;;;;107.43;34.17;;;;;;;-1.61;100.00;98916.44;5090193;28;20036;-79
2024/01/17 03:48:04;;;;;;;149.98;46.92;;;;;;;-2.59;100.00;98749.31;5091162;28;20032;-79
2024/01/17 03:50:30;;;;;;;209.98;60.92;;;;;;;-1.96;100.00;98843.25;5091213;28;20104;-80
2024/01/17 03:52:55;;;;;;;117.90;42.60;;;;;;;-1.42;100.00;98930.88;5090078;28;20119;-80
2024/01/17 03:55:21;;;;;;;166.38;48.08;;;;;;;-1.81;100.00;98864.91;5089616;28;20519;-79
2024/01/17 03:57:47;;;;;;;88.60;28.30;;;;;;;-1.49;100.00;98903.59;5089620;28;20143;-79
2024/01/17 04:00:14;;;;;;;92.97;31.00;;;;;;;-1.51;100.00;98896.97;5091255;28;20111;-78
2024/01/17 04:02:39;;;;;;;147.88;47.17;;;;;;;-1.52;100.00;98895.41;5090039;28;20030;-78
2024/01/17 04:05:05;;;;;;;114.50;41.20;;;;;;;-1.44;100.00;98899.81;5090953;28;20039;-78
2024/01/17 04:07:31;;;;;;;113.22;39.47;;;;;;;-2.00;100.00;98809.91;5091373;28;20039;-79
2024/01/17 04:09:56;;;;;;;385.33;100.65;;;;;;;-1.81;100.00;98845.19;5091131;28;20039;-80
2024/01/17 04:12:22;;;;;;;248.10;69.50;;;;;;;-2.11;100.00;98786.06;5091841;28;20062;-79
2024/01/17 04:14:47;;;;;;;258.75;75.07;;;;;;;-1.53;100.00;98886.47;5091062;28;20032;-80
2024/01/17 04:17:13;;;;;;;143.73;46.08;;;;;;;-1.81;100.00;98843.25;5091121;28;20103;-78
2024/01/17 04:19:38;;;;;;;147.23;49.17;;;;;;;-1.35;100.00;98914.00;5089676;28;20423;-79
2024/01/17 04:22:03;;;;;;;78.65;26.98;;;;;;;-1.56;100.00;98880.97;5090081;28;20059;-79
2024/01/17 04:24:29;;;;;;;88.60;26.17;;;;;;;-1.24;100.00;98942.13;5089887;28;20028;-79
2024/01/17 04:26:56;;;;;;;84.35;26.30;;;;;;;-1.69;100.00;98866.75;5091324;28;20506;-79
2024/01/17 04:29:22;;;;;;;78.10;43.00;;;;;;;-1.49;100.00;98906.31;5091066;28;20082;-79
2024/01/17 04:31:48;;;;;;;23.85;13.75;;;;;;;-1.51;100.00;98900.47;5092611;28;20032;-79
2024/01/17 04:34:14;;;;;;;43.03;19.98;;;;;;;-1.77;100.00;98868.50;5093472;28;20028;-79
2024/01/17 04:36:40;;;;;;;40.90;19.20;;;;;;;-1.71;100.00;98905.03;5095238;28;20047;-79
2024/01/17 04:39:05;;;;;;;132.63;47.97;;;;;;;-1.60;100.00;98923.44;5093461;28;20093;-80
2024/01/17 04:41:31;;;;;;;127.60;46.22;;;;;;;-1.71;100.00;98939.44;5093790;28;20055;-79
2024/01/17 04:43:56;;;;;;;127.35;43.15;;;;;;;-1.80;100.00;98936.09;5093779;28;20453;-79
2024/01/17 04:46:23;;;;;;;122.82;44.42;;;;;;;-1.76;100.00;98939.72;5093630;28;20024;-80
2024/01/17 04:48:48;;;;;;;123.82;44.30;;;;;;;-1.89;100.00;98898.38;5093127;28;20032;-79
2024/01/17 04:51:14;;;;;;;172.82;54.00;;;;;;;-1.91;100.00;98887.09;5094841;28;20080;-79
2024/01/17 04:53:42;;;;;;;222.23;61.13;;;;;;;-1.55;100.00;98937.50;5094414;28;20047;-79
2024/01/17 04:56:13;;;;;;;176.30;51.20;;;;;;;-1.23;100.00;98973.50;5094860;28;20441;-79
2024/01/17 04:58:39;;;;;;;149.30;39.55;;;;;;;-1.60;100.00;98948.63;5094484;28;20041;-79
2024/01/17 05:01:08;;;;;;;182.95;48.47;;;;;;;-1.27;100.00;98975.38;5093153;28;20101;-79
2024/01/17 05:03:34;;;;;;;164.15;44.50;;;;;;;-1.31;100.00;98986.09;5094347;28;20112;-78
2024/01/17 05:06:00;;;;;;;101.40;44.00;;;;;;;-1.71;100.00;98896.09;5094388;28;20110;-78
2024/01/17 05:08:26;;;;;;;94.80;40.35;;;;;;;-1.56;100.00;98914.25;5094327;28;20020;-79
2024/01/17 05:10:51;;;;;;;58.75;27.20;;;;;;;-1.55;100.00;98937.50;5093093;28;20131;-78
2024/01/17 05:13:17;;;;;;;25.35;14.18;;;;;;;-1.74;100.00;98900.28;5092458;28;20093;-78
2024/01/17 05:15:42;;;;;;;36.38;15.50;;;;;;;-1.93;100.00;98872.38;5094058;28;20031;-78
2024/01/17 05:18:11;;;;;;;33.42;13.73;;;;;;;-1.45;100.00;98968.72;5094387;28;20028;-78
2024/01/17 05:20:37;;;;;;;47.35;14.55;;;;;;;-1.18;100.00;98994.13;5092974;28;20031;-78
2024/01/17 05:23:03;;;;;;;50.83;15.30;;;;;;;-1.80;100.00;98880.03;5092790;28;20020;-78
2024/01/17 05:25:28;;;;;;;54.30;15.45;;;;;;;-1.76;100.00;98899.09;5092733;28;20079;-78
2024/01/17 05:27:54;;;;;;;32.05;11.70;;;;;;;-1.63;100.00;98929.56;5093763;28;20031;-78
2024/01/17 05:30:23;;;;;;;114.82;25.23;;;;;;;-1.37;100.00;98978.59;5092389;28;20089;-78
2024/01/17 05:32:49;;;;;;;28.10;11.32;;;;;;;-1.29;100.00;98967.56;5076261;28;20051;-78
2024/01/17 05:35:15;;;;;;;136.65;24.92;;;;;;;-1.35;100.00;98977.09;5092619;28;20028;-79
2024/01/17 05:37:42;;;;;;;26.13;11.38;;;;;;;-1.72;100.00;98933.25;5094052;28;20523;-78
2024/01/17 05:40:11;;;;;;;22.15;9.55;;;;;;;-1.23;100.00;98998.69;5093843;28;20066;-78
2024/01/17 05:42:40;;;;;;;54.10;16.48;;;;;;;-1.36;100.00;98964.69;5091721;28;20020;-78
2024/01/17 05:45:07;;;;;;;43.70;14.68;;;;;;;-1.23;100.00;99012.25;5092272;28;20047;-79
2024/01/17 05:47:37;;;;;;;26.83;11.10;;;;;;;-1.12;100.00;99031.47;5093528;28;20016;-79
2024/01/17 05:50:04;;;;;;;55.22;18.35;;;;;;;-2.37;100.00;98831.81;5093704;28;20035;-79
2024/01/17 05:52:30;;;;;;;47.95;17.05;;;;;;;-1.30;100.00;98993.09;5092212;28;20028;-79
2024/01/17 05:54:56;;;;;;;28.15;13.95;;;;;;;-1.65;100.00;98946.97;5091996;28;20082;-80
2024/01/17 05:57:22;;;;;;;26.50;13.38;;;;;;;-1.76;100.00;98937.78;5091953;28;20067;-79
2024/01/17 05:59:47;;;;;;;13.50;7.82;;;;;;;-2.23;100.00;98918.75;5093608;28;20024;-79
2024/01/17 06:02:13;;;;;;;14.45;7.38;;;;;;;-1.92;100.00;99014.69;5093853;28;20633;-80
2024/01/17 06:04:39;;;;;;;17.95;8.40;;;;;;;-1.84;100.00;99027.31;5092003;28;20036;-79
2024/01/17 06:07:04;;;;;;;15.88;8.60;;;;;;;-2.01;100.00;98963.44;5093688;28;20407;-79
2024/01/17 06:09:30;;;;;;;16.13;9.70;;;;;;;-1.83;100.00;98980.94;5091215;28;20036;-80
2024/01/17 06:11:55;;;;;;;21.23;9.63;;;;;;;-2.05;100.00;98946.31;5084654;28;20163;-80
2024/01/17 06:14:21;;;;;;;21.23;9.02;;;;;;;-1.52;100.00;99011.91;5085540;28;20160;-79
2024/01/17 06:16:47;;;;;;;18.85;8.48;;;;;;;-1.53;100.00;99000.28;5092100;28;20020;-80
2024/01/17 06:19:14;;;;;;;15.85;8.38;;;;;;;-1.51;100.00;98986.38;5092115;28;20476;-79
2024/01/17 06:21:40;;;;;;;19.63;9.10;;;;;;;-1.01;100.00;99053.41;5091702;28;20024;-79
2024/01/17 06:24:05;;;;;;;16.98;8.00;;;;;;;-1.27;100.00;98999.75;5093171;28;20028;-79
2024/01/17 06:26:31;;;;;;;15.90;8.25;;;;;;;-1.10;100.00;99023.78;5091492;28;20103;-79
2024/01/17 06:28:56;;;;;;;16.08;8.63;;;;;;;-1.11;100.00;99003.22;5092345;28;20489;-79
2024/01/17 06:31:24;;;;;;;17.50;8.63;;;;;;;-0.58;100.00;99061.41;5091027;28;20571;-80
2024/01/17 06:33:49;;;;;;;18.98;8.55;;;;;;;-0.90;100.00;98990.16;5091153;28;20049;-80
2024/01/17 06:36:15;;;;;;;14.88;7.68;;;;;;;-0.78;100.00;98991.97;5092502;28;20032;-80
2024/01/17 06:38:40;;;;;;;15.35;8.25;;;;;;;-0.54;100.00;99043.28;5090840;28;20481;-80
2024/01/17 06:41:06;;;;;;;12.65;6.85;;;;;;;-0.66;100.00;99012.78;5090125;28;20024;-80
2024/01/17 06:43:31;;;;;;;13.57;7.78;;;;;;;-0.39;100.00;99041.66;5091389;28;20032;-80
2024/01/17 06:45:57;;;;;;;18.00;8.38;;;;;;;-0.22;100.00;99045.91;5091350;28;20023;-80
2024/01/17 06:48:22;;;;;;;20.20;8.52;;;;;;;-0.30;100.00;99028.66;5091341;28;20064;-80
2024/01/17 06:50:47;;;;;;;13.38;6.32;;;;;;;-0.05;100.00;99073.41;5091640;28;20032;-80
2024/01/17 06:53:15;;;;;;;8.05;4.75;;;;;;;-0.32;98.63;99044.53;5091112;28;20100;-80
2024/01/17 06:55:41;;;;;;;8.60;5.32;;;;;;;-0.25;98.21;99046.63;5089955;28;20081;-81
2024/01/17 06:58:07;;;;;;;8.52;5.35;;;;;;;-0.61;97.88;98986.16;5091181;28;21152;-80
2024/01/17 07:00:32;;;;;;;6.82;4.40;;;;;;;-0.20;97.56;99057.97;5091623;28;20062;-81
2024/01/17 07:02:58;;;;;;;5.93;4.07;;;;;;;-0.42;96.16;99015.22;5092531;28;20056;-80
2024/01/17 07:05:23;;;;;;;9.65;5.32;;;;;;;-0.49;95.32;98996.09;5091168;28;20483;-79
2024/01/17 07:07:49;;;;;;;9.10;4.82;;;;;;;0.08;95.63;99070.56;5078112;28;20597;-79
2024/01/17 07:10:14;;;;;;;6.35;4.30;;;;;;;-0.06;95.46;99030.34;5091479;28;20039;-79
2024/01/17 07:12:40;;;;;;;8.38;4.30;;;;;;;-0.22;94.96;98992.38;5090390;28;20024;-80
2024/01/17 07:15:05;;;;;;;9.30;5.07;;;;;;;0.51;94.86;99072.16;5088681;28;20515;-79
2024/01/17 07:17:31;;;;;;;11.18;5.93;;;;;;;0.52;94.80;99052.78;5089979;28;20154;-79
2024/01/17 07:19:57;;;;;;;13.25;6.38;;;;;;;0.43;93.79;99016.88;5087926;28;20468;-80
2024/01/17 07:22:22;;;;;;;11.23;6.80;;;;;;;0.81;93.72;99059.50;5089128;28;20423;-79
2024/01/17 07:24:48;;;;;;;11.68;6.93;;;;;;;0.82;93.37;99031.97;5083286;28;20063;-80
2024/01/17 07:27:13;;;;;;;16.45;8.95;;;;;;;1.14;92.65;99042.56;5081774;28;20074;-79
2024/01/17 07:29:38;;;;;;;21.10;10.10;;;;;;;1.09;93.02;99002.84;5089730;28;20444;-79
2024/01/17 07:32:05;;;;;;;18.63;9.38;;;;;;;1.46;93.22;99023.97;5088460;28;20031;-79
2024/01/17 07:34:30;;;;;;;19.60;10.40;;;;;;;1.34;94.15;98977.91;5089746;28;20027;-80
2024/01/17 07:36:56;;;;;;;20.23;10.30;;;;;;;1.97;94.18;99060.47;5091360;28;20499;-80
2024/01/17 07:39:21;;;;;;;16.88;11.05;;;;;;;1.96;92.85;99015.31;5085174;28;20020;-79
2024/01/17 07:41:47;;;;;;;22.55;11.80;;;;;;;2.05;92.58;99007.59;5081681;28;20018;-79
2024/01/17 07:44:14;;;;;;;24.00;12.63;;;;;;;2.10;92.38;98992.09;5090122;28;20028;-79
2024/01/17 07:46:39;;;;;;;34.13;14.90;;;;;;;2.22;91.42;99017.16;5089983;28;20028;-80
2024/01/17 07:49:05;;;;;;;47.20;17.27;;;;;;;2.19;91.19;98989.84;5103300;28;20046;-79
2024/01/17 07:51:30;;;;;;;62.17;22.63;;;;;;;2.30;91.55;98974.38;5091179;28;20457;-80
2024/01/17 07:53:56;;;;;;;41.85;17.73;;;;;;;2.94;90.89;99033.03;5089281;28;20032;-80
2024/01/17 07:56:22;;;;;;;25.05;12.65;;;;;;;3.09;88.39;99042.91;5089679;28;20032;-79
2024/01/17 07:58:49;;;;;;;28.02;14.70;;;;;;;2.61;87.53;99055.72;5089692;28;20418;-79
2024/01/17 08:01:15;;;;;;;37.55;15.10;;;;;;;2.75;89.35;99066.00;5091050;28;20028;-79
2024/01/17 08:03:41;;;;;;;29.73;15.07;;;;;;;2.69;88.82;99021.13;5089623;28;20024;-79
2024/01/17 08:06:07;;;;;;;26.95;14.50;;;;;;;3.23;86.63;99078.50;5090587;28;20024;-79
2024/01/17 08:08:32;;;;;;;40.97;17.23;;;;;;;3.18;85.01;99067.16;5089484;28;20020;-80
2024/01/17 08:10:58;;;;;;;27.20;14.52;;;;;;;3.37;84.48;99083.31;5089882;28;20158;-80
2024/01/17 08:13:23;;;;;;;32.60;13.55;;;;;;;3.25;83.82;99027.03;5089403;28;20504;-79
2024/01/17 08:15:49;;;;;;;26.70;13.48;;;;;;;3.38;83.94;99023.97;5089473;28;20123;-79
2024/01/17 08:18:14;;;;;;;27.13;13.82;;;;;;;3.48;83.27;98990.50;5090881;28;20036;-79
2024/01/17 08:20:40;;;;;;;26.58;13.60;;;;;;;4.20;79.57;99041.59;5090644;28;20496;-80
2024/01/17 08:23:05;;;;;;;27.55;13.40;;;;;;;4.22;77.21;99037.28;5089097;28;20020;-80
2024/01/17 08:25:34;;;;;;;38.05;17.17;;;;;;;4.01;75.99;98997.00;5090851;28;20020;-79
2024/01/17 08:27:59;;;;;;;29.80;15.75;;;;;;;4.03;75.88;99045.84;5088996;28;20032;-80
2024/01/17 08:30:26;;;;;;;27.45;12.18;;;;;;;3.98;76.55;99046.97;5089655;28;20032;-79
2024/01/17 08:32:53;;;;;;;59.58;21.55;;;;;;;3.67;73.90;98973.84;5090553;28;20491;-80
2024/01/17 08:35:19;;;;;;;66.43;22.98;;;;;;;3.21;73.80;98952.50;5090690;28;20024;-79
2024/01/17 08:37:45;;;;;;;65.47;22.85;;;;;;;3.81;74.69;99011.34;5089305;28;20449;-79
2024/01/17 08:40:11;;;;;;;19.83;11.30;;;;;;;3.61;75.19;99016.34;5089012;28;20032;-80
2024/01/17 08:42:37;;;;;;;59.70;20.70;;;;;;;3.63;74.31;99035.84;5090046;28;20038;-80
2024/01/17 08:45:05;;;;;;;60.95;20.65;;;;;;;3.43;75.17;98975.28;5090654;28;20024;-78
2024/01/17 08:47:31;;;;;;;22.92;12.02;;;;;;;3.38;76.56;98981.06;5089189;28;20020;-79
2024/01/17 08:49:56;;;;;;;20.35;11.05;;;;;;;3.90;77.13;99025.47;5090354;28;20358;-79
2024/01/17 08:52:22;;;;;;;23.33;11.63;;;;;;;3.92;74.25;99040.28;5090306;28;20031;-79
2024/01/17 08:54:48;;;;;;;20.15;11.60;;;;;;;3.88;74.35;99036.78;5088692;28;20045;-79
2024/01/17 08:57:13;;;;;;;20.70;11.43;;;;;;;4.05;72.64;99016.94;5090225;28;20107;-79
2024/01/17 08:59:39;;;;;;;21.35;11.65;;;;;;;4.10;72.16;99019.28;5090179;28;20176;-79
2024/01/17 09:02:05;;;;;;;21.50;12.25;;;;;;;4.07;71.77;98990.00;5090574;28;20020;-79
2024/01/17 09:04:32;;;;;;;22.77;12.20;;;;;;;4.42;70.72;99021.34;5090586;28;20053;-80
2024/01/17 09:06:57;;;;;;;23.90;12.43;;;;;;;4.45;69.96;99009.63;5090239;28;20031;-80
2024/01/17 09:09:25;;;;;;;20.30;11.52;;;;;;;4.17;68.36;98995.88;5090605;28;20032;-79
2024/01/17 09:11:51;;;;;;;;;;;;;;;4.46;68.53;99042.06;5089400;28;20020;-80
2024/01/17 09:14:19;;;;;;;18.83;10.45;;;;;;;4.30;66.88;99027.16;5088914;28;19915;-79
2024/01/17 09:16:45;;;;;;;22.88;12.63;;;;;;;4.56;66.94;99040.53;5090264;28;20046;-80
2024/01/17 09:19:10;;;;;;;18.52;10.45;;;;;;;4.33;68.02;98950.59;5089909;28;20020;-79
2024/01/17 09:21:36;;;;;;;16.15;9.82;;;;;;;4.95;67.34;99029.59;5093588;28;20440;-80
2024/01/17 09:24:01;;;;;;;17.48;10.00;;;;;;;4.88;66.69;98969.41;5093997;28;20036;-80
2024/01/17 09:26:26;;;;;;;16.42;8.20;;;;;;;5.39;63.95;99010.03;5094070;28;20476;-79
2024/01/17 09:28:52;;;;;;;69.63;22.38;;;;;;;5.36;61.93;99027.28;5092886;28;20042;-79
2024/01/17 09:31:17;;;;;;;20.10;11.30;;;;;;;5.39;60.64;98998.28;5092652;28;20103;-79
2024/01/17 09:33:43;;;;;;;11.63;6.55;;;;;;;5.31;59.12;99002.97;5092024;28;20027;-80
2024/01/17 09:36:08;;;;;;;11.15;5.95;;;;;;;5.68;57.96;99025.22;5091903;28;20020;-80
2024/01/17 09:38:34;;;;;;;11.35;6.28;;;;;;;5.44;56.30;98952.09;5090583;28;20024;-79
2024/01/17 09:40:59;;;;;;;24.98;11.77;;;;;;;5.79;56.50;98966.88;5091460;28;20132;-79
2024/01/17 09:43:26;;;;;;;25.67;12.02;;;;;;;5.92;56.18;98948.78;5091552;28;20028;-80
2024/01/17 09:45:54;;;;;;;11.63;7.13;;;;;;;6.08;54.83;98982.03;5086501;28;20459;-78
2024/01/17 09:48:23;;;;;;;9.88;5.50;;;;;;;5.65;55.53;98976.69;5083339;28;20024;-79
2024/01/17 09:50:49;;;;;;;13.30;7.07;;;;;;;5.24;53.63;98964.66;5089917;28;20023;-79
2024/01/17 09:53:19;;;;;;;8.68;5.55;;;;;;;5.32;55.33;99010.81;5091692;28;20032;-80
2024/01/17 09:55:47;;;;;;;8.88;5.32;;;;;;;5.60;54.33;98982.59;5091728;28;20053;-80
2024/01/17 09:58:13;;;;;;;9.93;5.85;;;;;;;5.73;54.95;98991.91;5091872;28;20096;-80
2024/01/17 10:00:41;;;;;;;8.98;5.90;;;;;;;5.87;55.81;98996.63;5092316;28;20519;-80
2024/01/17 10:03:07;;;;;;;10.10;5.75;;;;;;;5.58;53.05;98937.56;5092450;28;20031;-79
2024/01/17 10:05:34;;;;;;;8.85;4.88;;;;;;;6.10;53.12;98944.00;5078904;28;20071;-79
2024/01/17 10:08:00;;;;;;;9.43;6.13;;;;;;;6.40;51.25;98982.63;5092928;28;20062;-78
2024/01/17 10:10:27;;;;;;;8.50;5.60;;;;;;;6.46;52.04;98945.34;5093204;28;20063;-79
2024/01/17 10:12:54;;;;;;;8.40;5.10;;;;;;;6.59;52.05;98903.69;5091550;28;20035;-77
2024/01/17 10:15:22;;;;;;;9.50;5.68;;;;;;;7.11;51.72;98962.88;5091547;28;20036;-79
2024/01/17 10:17:48;;;;;;;12.00;5.82;;;;;;;6.34;51.11;98943.06;5091431;28;20404;-80
2024/01/17 10:20:13;;;;;;;9.95;5.65;;;;;;;7.08;51.29;98968.41;5091821;28;20028;-78
2024/01/17 10:22:41;;;;;;;9.68;5.05;;;;;;;7.08;51.65;98954.66;5091500;28;20389;-79
2024/01/17 10:25:08;;;;;;;9.23;5.38;;;;;;;7.51;50.92;98960.50;5091417;28;20020;-79
2024/01/17 10:27:34;;;;;;;10.97;5.40;;;;;;;7.24;48.94;98960.38;5091166;28;20089;-78
2024/01/17 10:30:00;;;;;;;12.43;5.80;;;;;;;6.88;49.14;98918.72;5091497;28;20050;-79
2024/01/17 10:32:27;;;;;;;11.10;6.32;;;;;;;6.43;50.59;98899.50;5091205;28;20559;-80
2024/01/17 10:34:54;;;;;;;14.63;10.83;;;;;;;6.29;50.55;98907.84;5092748;28;20117;-78
2024/01/17 10:37:20;;;;;;;8.83;5.50;;;;;;;6.40;49.72;98858.34;5091237;28;20054;-79
2024/01/17 10:39:45;;;;;;;9.70;7.07;;;;;;;6.95;48.46;98921.41;5091470;28;20551;-79
2024/01/17 10:42:20;;;;;;;8.60;5.63;;;;;;;6.82;49.33;98870.91;5091570;28;20034;-79
2024/01/17 10:44:45;;;;;;;9.68;5.05;;;;;;;7.31;48.48;98930.09;5091035;28;20035;-79
2024/01/17 10:47:11;;;;;;;41.97;18.40;;;;;;;7.52;47.93;98896.09;5083505;28;20024;-78
2024/01/17 10:49:36;;;;;;;14.63;7.18;;;;;;;7.38;48.43;98866.78;5085385;28;20028;-81
2024/01/17 10:52:09;;;;;;;12.93;6.65;;;;;;;7.49;49.25;98867.44;5089090;28;20464;-79
2024/01/17 10:54:50;;;;;;;17.15;11.23;;;;;;;6.87;50.66;98851.28;5074127;28;20049;-80
2024/01/17 10:57:19;;;;;;;25.23;16.42;;;;;;;7.21;49.76;98882.31;5074644;28;20040;-80
2024/01/17 10:59:47;;;;;;;14.07;7.15;;;;;;;6.84;49.72;98854.81;5084692;28;20077;-81
2024/01/17 11:02:18;;;;;;;21.50;9.95;;;;;;;7.16;50.01;98892.97;5091044;28;20074;-79
2024/01/17 11:04:46;;;;;;;18.90;9.43;;;;;;;6.62;50.97;98848.00;5090686;28;20476;-80
2024/01/17 11:07:13;;;;;;;14.00;7.00;;;;;;;6.69;51.17;98850.66;5092257;28;20064;-80
2024/01/17 11:09:41;;;;;;;11.48;6.90;;;;;;;6.95;50.18;98861.78;5092081;28;20020;-80
2024/01/17 11:12:08;;;;;;;10.32;5.97;;;;;;;6.64;50.99;98832.66;5090494;28;20074;-79
2024/01/17 11:14:35;;;;;;;13.60;6.70;;;;;;;6.34;51.51;98838.78;5088216;28;20032;-79